createdAt,value
2023-03-04T00:00:56.357Z,50.70
2023-03-04T00:03:24.246Z,45.42
2023-03-04T00:05:52.141Z,43.35
2023-03-04T00:08:19.862Z,43.85
2023-03-04T00:10:47.704Z,42.47
2023-03-04T00:13:15.477Z,40.28
2023-03-04T00:15:43.227Z,44.80
2023-03-04T00:18:10.921Z,43.20
2023-03-04T00:20:38.558Z,46.50
2023-03-04T00:23:06.229Z,42.45
2023-03-04T00:25:34.763Z,51.67
2023-03-04T00:28:02.609Z,42.72
2023-03-04T00:30:30.306Z,46.10
2023-03-04T00:32:58.119Z,46.50
2023-03-04T00:35:25.750Z,44.83
2023-03-04T00:37:53.495Z,47.00
2023-03-04T00:40:21.414Z,44.30
2023-03-04T00:42:49.101Z,44.15
2023-03-04T00:45:16.888Z,47.58
2023-03-04T00:47:44.556Z,45.00
2023-03-04T00:50:12.747Z,44.50
2023-03-04T00:52:40.438Z,47.58
2023-03-04T00:55:09.212Z,45.40
2023-03-04T00:57:36.978Z,46.05
2023-03-04T01:00:06.138Z,49.40
2023-03-04T01:02:33.848Z,50.90
2023-03-04T01:05:01.497Z,53.13
2023-03-04T01:07:29.174Z,47.15
2023-03-04T01:09:56.788Z,46.42
2023-03-04T01:12:24.462Z,46.47
2023-03-04T01:14:52.144Z,48.22
2023-03-04T01:17:19.891Z,48.47
2023-03-04T01:19:47.596Z,50.35
2023-03-04T01:22:16.315Z,47.53
2023-03-04T01:24:44.462Z,49.60
2023-03-04T01:27:12.354Z,48.58
2023-03-04T01:29:40.020Z,47.83
2023-03-04T01:32:07.795Z,48.15
2023-03-04T01:34:35.610Z,48.35
2023-03-04T01:37:03.482Z,47.00
2023-03-04T01:39:31.233Z,49.10
2023-03-04T01:41:59.351Z,53.17
2023-03-04T01:44:27.418Z,44.17
2023-03-04T01:46:56.773Z,46.20
2023-03-04T01:49:24.843Z,48.53
2023-03-04T01:51:55.694Z,48.60
2023-03-04T01:54:24.318Z,50.30
2023-03-04T01:56:53.462Z,47.53
2023-03-04T01:59:22.810Z,48.92
2023-03-04T02:02:01.588Z,42.35
2023-03-04T02:04:35.454Z,48.53
2023-03-04T02:07:04.893Z,47.33
2023-03-04T02:09:34.214Z,51.10
2023-03-04T02:12:02.444Z,51.03
2023-03-04T02:14:30.486Z,49.05
2023-03-04T02:16:58.360Z,44.20
2023-03-04T02:19:25.870Z,42.60
2023-03-04T02:21:53.704Z,45.45
2023-03-04T02:24:32.392Z,49.33
2023-03-04T02:27:00.662Z,44.05
2023-03-04T02:29:29.292Z,43.05
2023-03-04T02:31:57.297Z,44.20
2023-03-04T02:34:30.953Z,43.95
2023-03-04T02:36:58.899Z,50.95
2023-03-04T02:39:33.330Z,48.92
2023-03-04T02:42:02.775Z,45.03
2023-03-04T02:44:33.208Z,44.15
2023-03-04T02:47:01.049Z,45.25
2023-03-04T02:49:31.340Z,49.00
2023-03-04T02:52:07.151Z,45.80
2023-03-04T02:54:35.142Z,43.97
2023-03-04T02:57:05.108Z,53.78
2023-03-04T02:59:33.103Z,42.83
2023-03-04T03:02:01.020Z,46.80
2023-03-04T03:04:29.345Z,43.80
2023-03-04T03:06:57.202Z,45.05
2023-03-04T03:09:24.845Z,46.40
2023-03-04T03:11:52.610Z,50.03
2023-03-04T03:14:20.383Z,44.45
2023-03-04T03:16:48.030Z,46.78
2023-03-04T03:19:15.791Z,45.22
2023-03-04T03:21:43.512Z,46.83
2023-03-04T03:24:11.192Z,40.38
2023-03-04T03:26:40.983Z,41.67
2023-03-04T03:29:08.725Z,49.67
2023-03-04T03:31:36.460Z,42.00
2023-03-04T03:34:04.131Z,43.17
2023-03-04T03:36:32.038Z,38.92
2023-03-04T03:38:59.882Z,46.25
2023-03-04T03:41:27.534Z,42.65
2023-03-04T03:43:55.183Z,48.13
2023-03-04T03:46:22.806Z,48.03
2023-03-04T03:48:50.448Z,46.97
2023-03-04T03:51:18.112Z,41.03
2023-03-04T03:53:45.851Z,43.17
2023-03-04T03:56:13.556Z,46.10
2023-03-04T03:58:41.247Z,46.53
2023-03-04T04:01:10.323Z,44.05
2023-03-04T04:03:38.032Z,42.40
2023-03-04T04:06:05.824Z,49.20
2023-03-04T04:08:34.522Z,43.72
2023-03-04T04:11:02.193Z,47.25
2023-03-04T04:13:29.811Z,41.88
2023-03-04T04:15:57.473Z,46.00
2023-03-04T04:18:26.888Z,45.28
2023-03-04T04:20:54.942Z,43.65
2023-03-04T04:23:22.964Z,51.05
2023-03-04T04:25:50.734Z,43.20
2023-03-04T04:28:18.394Z,44.65
2023-03-04T04:30:46.091Z,39.42
2023-03-04T04:33:13.754Z,44.10
2023-03-04T04:35:41.460Z,41.78
2023-03-04T04:38:09.889Z,51.72
2023-03-04T04:40:38.211Z,47.42
2023-03-04T04:43:05.888Z,43.70
2023-03-04T04:45:33.657Z,40.00
2023-03-04T04:48:01.420Z,42.50
2023-03-04T04:50:32.550Z,44.30
2023-03-04T04:53:00.583Z,49.08
2023-03-04T04:55:28.934Z,48.25
2023-03-04T04:57:56.575Z,52.35
2023-03-04T05:00:24.200Z,46.22
2023-03-04T05:02:51.947Z,49.83
2023-03-04T05:05:19.649Z,43.55
2023-03-04T05:07:47.329Z,42.92
2023-03-04T05:10:15.052Z,42.60
2023-03-04T05:12:42.678Z,46.60
2023-03-04T05:15:10.630Z,44.63
2023-03-04T05:17:38.363Z,48.87
2023-03-04T05:20:08.254Z,49.25
2023-03-04T05:22:36.153Z,47.35
2023-03-04T05:25:04.656Z,48.75
2023-03-04T05:27:32.389Z,48.95
2023-03-04T05:30:03.166Z,47.70
2023-03-04T05:32:30.854Z,54.25
2023-03-04T05:34:58.567Z,47.00
2023-03-04T05:37:26.254Z,55.42
2023-03-04T05:39:53.871Z,48.00
2023-03-04T05:42:21.600Z,50.45
2023-03-04T05:44:49.314Z,46.83
2023-03-04T05:47:17.333Z,44.78
2023-03-04T05:49:45.721Z,45.92
2023-03-04T05:52:13.399Z,44.90
2023-03-04T05:54:41.073Z,44.20
2023-03-04T05:57:08.794Z,54.30
2023-03-04T05:59:36.580Z,48.42
2023-03-04T06:02:04.389Z,41.72
2023-03-04T06:04:32.253Z,45.97
2023-03-04T06:06:59.906Z,46.67
2023-03-04T06:09:27.613Z,63.87
2023-03-04T06:11:55.285Z,50.20
2023-03-04T06:14:23.098Z,45.53
2023-03-04T06:16:50.877Z,57.72
2023-03-04T06:19:18.684Z,56.70
2023-03-04T06:21:46.388Z,73.18
2023-03-04T06:24:14.283Z,60.67
2023-03-04T06:26:41.950Z,60.60
2023-03-04T06:29:09.657Z,59.25
2023-03-04T06:31:37.391Z,60.90
2023-03-04T06:34:05.125Z,60.33
2023-03-04T06:36:32.769Z,75.93
2023-03-04T06:39:00.444Z,71.35
2023-03-04T06:41:28.125Z,56.08
2023-03-04T06:43:56.039Z,65.10
2023-03-04T06:46:24.261Z,68.72
2023-03-04T06:48:52.033Z,70.85
2023-03-04T06:51:20.823Z,63.40
2023-03-04T06:53:48.555Z,70.07
2023-03-04T06:56:19.519Z,76.20
2023-03-04T06:58:47.588Z,68.62
2023-03-04T07:01:27.241Z,72.35
2023-03-04T07:03:56.273Z,63.40
2023-03-04T07:06:27.179Z,60.60
2023-03-04T07:08:55.883Z,71.10
2023-03-04T07:11:24.461Z,60.30
2023-03-04T07:13:52.696Z,58.70
2023-03-04T07:16:23.278Z,69.18
2023-03-04T07:18:51.498Z,61.70
2023-03-04T07:21:19.965Z,59.30
2023-03-04T07:23:48.053Z,60.17
2023-03-04T07:26:15.720Z,58.28
2023-03-04T07:28:44.500Z,65.40
2023-03-04T07:31:12.893Z,59.00
2023-03-04T07:33:40.590Z,79.05
2023-03-04T07:36:08.466Z,77.93
2023-03-04T07:38:36.247Z,106.00
2023-03-04T07:41:04.489Z,87.20
2023-03-04T07:43:32.220Z,63.38
2023-03-04T07:46:02.863Z,61.37
2023-03-04T07:48:30.762Z,75.50
2023-03-04T07:51:21.830Z,71.20
2023-03-04T07:53:55.390Z,56.83
2023-03-04T07:56:26.311Z,71.40
2023-03-04T07:58:57.449Z,65.55
2023-03-04T08:01:28.915Z,75.57
2023-03-04T08:03:56.781Z,57.50
2023-03-04T08:06:25.301Z,54.63
2023-03-04T08:09:01.241Z,62.45
2023-03-04T08:11:30.523Z,69.78
2023-03-04T08:13:58.401Z,55.12
2023-03-04T08:16:27.040Z,53.70
2023-03-04T08:18:57.295Z,68.20
2023-03-04T08:21:26.570Z,65.37
2023-03-04T08:23:55.044Z,70.53
2023-03-04T08:26:26.645Z,58.78
2023-03-04T08:28:55.819Z,61.00
2023-03-04T08:31:23.903Z,57.08
2023-03-04T08:33:52.432Z,50.40
2023-03-04T08:36:20.400Z,55.72
2023-03-04T08:38:48.154Z,54.40
2023-03-04T08:41:16.708Z,54.72
2023-03-04T08:43:45.108Z,62.10
2023-03-04T08:46:13.271Z,59.53
2023-03-04T08:48:41.019Z,56.65
2023-03-04T08:51:11.516Z,51.45
2023-03-04T08:53:39.910Z,53.65
2023-03-04T08:56:08.354Z,55.30
2023-03-04T08:58:36.293Z,52.97
2023-03-04T09:01:05.393Z,53.80
2023-03-04T09:03:33.258Z,51.95
2023-03-04T09:06:04.016Z,52.72
2023-03-04T09:08:32.606Z,55.97
2023-03-04T09:11:00.861Z,50.85
2023-03-04T09:13:30.642Z,54.40
2023-03-04T09:15:59.376Z,56.80
2023-03-04T09:18:28.078Z,60.15
2023-03-04T09:20:56.096Z,49.58
2023-03-04T09:23:24.044Z,56.33
2023-03-04T09:25:52.056Z,53.72
2023-03-04T09:28:20.821Z,55.53
2023-03-04T09:30:48.695Z,51.22
2023-03-04T09:33:16.415Z,51.47
2023-03-04T09:35:44.625Z,49.70
2023-03-04T09:38:12.320Z,47.28
2023-03-04T09:40:49.624Z,53.92
2023-03-04T09:43:31.247Z,52.13
2023-03-04T09:46:04.022Z,57.75
2023-03-04T09:48:45.952Z,50.47
2023-03-04T09:51:41.151Z,51.58
2023-03-04T09:54:28.880Z,51.05
2023-03-04T09:57:07.847Z,54.42
2023-03-04T09:59:48.266Z,54.63
2023-03-04T10:02:33.747Z,52.28
2023-03-04T10:05:06.987Z,51.92
2023-03-04T10:07:39.662Z,50.53
2023-03-04T10:10:17.925Z,48.55
2023-03-04T10:12:50.715Z,59.97
2023-03-04T10:15:24.528Z,52.45
2023-03-04T10:18:01.751Z,51.37
2023-03-04T10:20:45.267Z,55.60
2023-03-04T10:23:19.556Z,54.05
2023-03-04T10:25:48.051Z,63.63
2023-03-04T10:28:21.617Z,57.95
2023-03-04T10:31:13.106Z,58.67
2023-03-04T10:33:42.456Z,55.03
2023-03-04T10:36:22.786Z,57.75
2023-03-04T10:38:54.962Z,55.97
2023-03-04T10:41:27.158Z,56.28
2023-03-04T10:44:03.659Z,65.37
2023-03-04T10:46:32.936Z,59.78
2023-03-04T10:49:01.115Z,53.70
2023-03-04T10:51:30.617Z,57.08
2023-03-04T10:54:17.730Z,63.20
2023-03-04T10:56:57.103Z,59.17
2023-03-04T10:59:34.794Z,61.55
2023-03-04T11:02:15.340Z,54.10
2023-03-04T11:04:43.167Z,60.70
2023-03-04T11:07:12.182Z,56.78
2023-03-04T11:09:41.385Z,61.70
2023-03-04T11:12:17.946Z,68.10
2023-03-04T11:14:54.937Z,58.28
2023-03-04T11:17:41.785Z,63.87
2023-03-04T11:20:27.839Z,60.53
2023-03-04T11:22:57.995Z,60.30
2023-03-04T11:25:33.871Z,56.40
2023-03-04T11:28:08.402Z,58.97
2023-03-04T11:30:56.224Z,62.03
2023-03-04T11:33:37.272Z,57.10
2023-03-04T11:36:23.543Z,68.60
2023-03-04T11:38:52.988Z,56.60
2023-03-04T11:41:24.787Z,60.10
2023-03-04T11:43:52.626Z,67.55
2023-03-04T11:46:50.636Z,64.87
2023-03-04T11:49:33.551Z,60.55
2023-03-04T11:52:50.854Z,61.92
2023-03-04T11:55:44.233Z,53.40
2023-03-04T11:58:30.393Z,59.33
2023-03-04T12:01:16.325Z,47.22
2023-03-04T12:04:06.149Z,53.50
2023-03-04T12:06:45.208Z,54.80
2023-03-04T12:09:34.268Z,60.17
2023-03-04T12:12:28.209Z,48.15
2023-03-04T12:14:55.807Z,51.80
2023-03-04T12:17:36.335Z,60.53
2023-03-04T12:20:22.967Z,58.05
2023-03-04T12:23:12.886Z,52.45
2023-03-04T12:26:11.255Z,53.03
2023-03-04T12:28:41.682Z,50.35
2023-03-04T12:31:27.493Z,48.17
2023-03-04T12:34:10.040Z,47.05
2023-03-04T12:36:43.246Z,45.45
2023-03-04T12:39:20.418Z,44.00
2023-03-04T12:41:50.766Z,52.60
2023-03-04T12:44:20.338Z,43.05
2023-03-04T12:46:51.223Z,49.97
2023-03-04T12:49:35.833Z,48.83
2023-03-04T12:52:40.583Z,47.35
2023-03-04T12:55:18.419Z,49.60
2023-03-04T12:57:47.060Z,51.47
2023-03-04T13:00:48.081Z,47.17
2023-03-04T13:03:24.659Z,48.13
2023-03-04T13:06:05.224Z,49.05
2023-03-04T13:09:08.477Z,47.00
2023-03-04T13:12:07.512Z,52.65
2023-03-04T13:14:35.849Z,50.28
2023-03-04T13:17:39.888Z,52.72
2023-03-04T13:20:22.200Z,54.00
2023-03-04T13:22:59.905Z,51.70
2023-03-04T13:25:43.423Z,48.78
2023-03-04T13:28:11.045Z,43.50
2023-03-04T13:30:41.418Z,47.38
2023-03-04T13:33:12.212Z,45.40
2023-03-04T13:36:03.005Z,47.58
2023-03-04T13:38:35.422Z,42.20
2023-03-04T13:41:06.124Z,45.38
2023-03-04T13:43:41.134Z,41.58
2023-03-04T13:46:21.188Z,40.58
2023-03-04T13:48:51.800Z,42.50
2023-03-04T13:51:44.148Z,47.92
2023-03-04T13:54:16.988Z,53.63
2023-03-04T13:56:48.910Z,51.28
2023-03-04T13:59:43.282Z,48.00
2023-03-04T14:02:23.203Z,53.85
2023-03-04T14:05:02.356Z,49.17
2023-03-04T14:07:38.154Z,51.10
2023-03-04T14:10:24.358Z,51.05
2023-03-04T14:12:59.120Z,51.10
2023-03-04T14:15:31.756Z,44.97
2023-03-04T14:18:02.174Z,52.13
2023-03-04T14:20:35.159Z,47.90
2023-03-04T14:23:05.814Z,47.50
2023-03-04T14:25:36.926Z,52.62
2023-03-04T14:28:13.443Z,52.47
2023-03-04T14:30:52.501Z,52.47
2023-03-04T14:33:24.220Z,55.45
2023-03-04T14:35:54.924Z,56.60
2023-03-04T14:38:27.474Z,53.60
2023-03-04T14:41:04.246Z,59.15
2023-03-04T14:43:38.411Z,53.72
2023-03-04T14:46:13.509Z,57.42
2023-03-04T14:48:47.085Z,58.72
2023-03-04T14:51:37.401Z,52.62
2023-03-04T14:54:05.686Z,50.83
2023-03-04T14:56:36.711Z,51.97
2023-03-04T14:59:04.530Z,57.92
2023-03-04T15:01:36.777Z,52.72
2023-03-04T15:04:09.057Z,49.05
2023-03-04T15:06:40.706Z,56.10
2023-03-04T15:09:29.180Z,50.40
2023-03-04T15:12:07.540Z,54.67
2023-03-04T15:14:55.323Z,52.08
2023-03-04T15:17:33.964Z,57.83
2023-03-04T15:20:07.441Z,59.33
2023-03-04T15:22:36.822Z,53.92
2023-03-04T15:25:04.988Z,56.65
2023-03-04T15:27:32.809Z,51.08
2023-03-04T15:30:02.714Z,53.42
2023-03-04T15:32:31.043Z,50.28
2023-03-04T15:34:58.834Z,56.42
2023-03-04T15:37:29.867Z,57.97
2023-03-04T15:39:59.095Z,52.00
2023-03-04T15:42:26.944Z,53.25
2023-03-04T15:44:54.680Z,50.00
2023-03-04T15:47:22.373Z,55.70
2023-03-04T15:49:50.137Z,52.75
2023-03-04T15:52:22.502Z,56.05
2023-03-04T15:54:51.139Z,55.75
2023-03-04T15:57:25.981Z,53.87
2023-03-04T15:59:54.602Z,49.55
2023-03-04T16:02:25.028Z,54.80
2023-03-04T16:04:52.758Z,52.55
2023-03-04T16:07:30.836Z,55.85
2023-03-04T16:10:03.424Z,52.47
2023-03-04T16:12:31.463Z,53.05
2023-03-04T16:14:59.316Z,50.10
2023-03-04T16:17:27.076Z,63.10
2023-03-04T16:19:54.742Z,53.65
2023-03-04T16:22:30.386Z,52.92
2023-03-04T16:24:58.130Z,59.47
2023-03-04T16:27:27.735Z,57.30
2023-03-04T16:29:55.441Z,52.83
2023-03-04T16:32:23.221Z,52.13
2023-03-04T16:34:51.513Z,51.30
2023-03-04T16:37:21.412Z,58.08
2023-03-04T16:39:50.501Z,52.55
2023-03-04T16:42:23.089Z,52.70
2023-03-04T16:44:51.316Z,53.38
2023-03-04T16:47:19.123Z,52.78
2023-03-04T16:49:49.843Z,53.08
2023-03-04T16:52:33.138Z,50.00
2023-03-04T16:55:01.532Z,54.15
2023-03-04T16:57:29.789Z,51.03
2023-03-04T16:59:57.690Z,53.28
2023-03-04T17:02:29.084Z,52.15
2023-03-04T17:04:57.672Z,53.55
2023-03-04T17:07:25.399Z,49.83
2023-03-04T17:09:53.150Z,49.45
2023-03-04T17:12:20.893Z,50.67
2023-03-04T17:14:48.647Z,48.13
2023-03-04T17:17:18.387Z,52.05
2023-03-04T17:19:46.387Z,48.10
2023-03-04T17:22:14.181Z,51.35
2023-03-04T17:24:41.876Z,49.40
2023-03-04T17:27:09.852Z,51.05
2023-03-04T17:29:37.594Z,45.28
2023-03-04T17:32:05.614Z,48.87
2023-03-04T17:34:33.771Z,43.60
2023-03-04T17:37:01.535Z,46.33
2023-03-04T17:39:29.286Z,45.70
2023-03-04T17:41:57.824Z,43.17
2023-03-04T17:44:25.666Z,44.08
2023-03-04T17:46:53.427Z,47.62
2023-03-04T17:49:21.371Z,50.72
2023-03-04T17:51:49.282Z,55.10
2023-03-04T17:54:17.574Z,50.33
2023-03-04T17:56:45.626Z,49.65
2023-03-04T17:59:16.161Z,51.08
2023-03-04T18:01:46.218Z,52.60
2023-03-04T18:04:15.637Z,49.05
2023-03-04T18:06:44.438Z,48.67
2023-03-04T18:09:12.214Z,50.05
2023-03-04T18:11:41.656Z,52.75
2023-03-04T18:14:09.409Z,54.10
2023-03-04T18:16:37.143Z,49.10
2023-03-04T18:19:06.832Z,52.45
2023-03-04T18:21:34.636Z,49.70
2023-03-04T18:24:02.886Z,40.80
2023-03-04T18:26:30.843Z,37.58
2023-03-04T18:28:59.086Z,30.02
2023-03-04T18:31:31.702Z,26.67
2023-03-04T18:34:01.862Z,26.27
2023-03-04T18:36:30.688Z,26.25
2023-03-04T18:39:00.468Z,26.00
2023-03-04T18:41:28.489Z,24.95
2023-03-04T18:43:56.529Z,26.08
2023-03-04T18:46:43.830Z,26.67
2023-03-04T18:49:12.908Z,25.17
2023-03-04T18:51:40.706Z,23.92
2023-03-04T18:54:08.490Z,23.65
2023-03-04T18:56:49.944Z,24.35
2023-03-04T18:59:25.510Z,23.83
2023-03-04T19:01:54.267Z,22.85
2023-03-04T19:04:27.466Z,24.73
2023-03-04T19:06:55.495Z,25.33
2023-03-04T19:09:23.246Z,23.62
2023-03-04T19:11:50.939Z,24.45
2023-03-04T19:14:18.707Z,30.00
2023-03-04T19:16:46.423Z,26.58
2023-03-04T19:19:14.376Z,28.55
2023-03-04T19:21:43.018Z,23.83
2023-03-04T19:24:10.716Z,29.90
2023-03-04T19:26:38.417Z,27.10
2023-03-04T19:29:07.453Z,26.20
2023-03-04T19:31:35.342Z,25.10
2023-03-04T19:34:03.016Z,29.77
2023-03-04T19:36:31.749Z,25.67
2023-03-04T19:39:00.093Z,29.90
2023-03-04T19:41:28.161Z,30.17
2023-03-04T19:43:55.869Z,27.08
2023-03-04T19:46:23.658Z,31.08
2023-03-04T19:48:51.513Z,32.45
2023-03-04T19:51:22.005Z,28.62
2023-03-04T19:53:51.953Z,30.17
2023-03-04T19:56:21.277Z,29.00
2023-03-04T19:58:49.585Z,31.25
2023-03-04T20:01:31.178Z,29.75
2023-03-04T20:04:04.526Z,31.40
2023-03-04T20:06:32.745Z,33.47
2023-03-04T20:09:01.544Z,35.70
2023-03-04T20:11:30.465Z,34.55
2023-03-04T20:13:59.697Z,30.83
2023-03-04T20:16:28.280Z,35.13
2023-03-04T20:18:58.980Z,33.08
2023-03-04T20:21:33.112Z,35.70
2023-03-04T20:24:02.586Z,36.92
2023-03-04T20:26:31.307Z,34.13
2023-03-04T20:28:59.749Z,32.63
2023-03-04T20:31:30.804Z,30.52
2023-03-04T20:34:00.189Z,33.80
2023-03-04T20:36:30.068Z,35.83
2023-03-04T20:39:02.569Z,29.80
2023-03-04T20:41:32.245Z,33.63
2023-03-04T20:44:00.086Z,31.87
2023-03-04T20:46:35.858Z,32.75
2023-03-04T20:49:07.210Z,33.22
2023-03-04T20:51:35.944Z,30.92
2023-03-04T20:54:04.728Z,32.65
2023-03-04T20:56:32.760Z,30.75
2023-03-04T20:59:02.814Z,38.08
2023-03-04T21:01:32.153Z,32.88
2023-03-04T21:04:01.075Z,29.42
2023-03-04T21:06:32.210Z,30.65
2023-03-04T21:09:09.358Z,32.22
2023-03-04T21:11:41.658Z,33.90
2023-03-04T21:14:15.384Z,31.50
2023-03-04T21:16:44.220Z,31.67
2023-03-04T21:19:17.273Z,32.13
2023-03-04T21:21:46.118Z,33.95
2023-03-04T21:24:16.730Z,35.33
2023-03-04T21:26:46.398Z,33.30
2023-03-04T21:29:18.819Z,35.03
2023-03-04T21:31:52.882Z,35.05
2023-03-04T21:34:34.715Z,35.70
2023-03-04T21:37:03.433Z,38.47
2023-03-04T21:39:32.023Z,35.10
2023-03-04T21:42:00.886Z,36.45
2023-03-04T21:44:45.313Z,36.60
2023-03-04T21:47:16.121Z,28.73
2023-03-04T21:49:43.877Z,36.33
2023-03-04T21:52:11.579Z,34.13
2023-03-04T21:54:39.326Z,32.05
2023-03-04T21:57:06.991Z,35.33
2023-03-04T21:59:34.723Z,30.95
2023-03-04T22:02:03.053Z,31.25
2023-03-04T22:04:30.941Z,31.02
2023-03-04T22:06:58.647Z,41.05
2023-03-04T22:09:26.559Z,31.10
2023-03-04T22:11:54.268Z,37.38
2023-03-04T22:14:22.119Z,30.88
2023-03-04T22:16:55.818Z,31.17
2023-03-04T22:19:31.295Z,31.20
2023-03-04T22:22:00.200Z,35.28
2023-03-04T22:24:28.001Z,32.20
2023-03-04T22:26:57.921Z,38.10
2023-03-04T22:29:25.804Z,34.75
2023-03-04T22:31:53.484Z,30.15
2023-03-04T22:34:21.201Z,33.70
2023-03-04T22:36:50.369Z,34.28
2023-03-04T22:39:24.051Z,32.67
2023-03-04T22:41:51.832Z,31.23
2023-03-04T22:44:19.988Z,35.13
2023-03-04T22:46:47.730Z,29.48
2023-03-04T22:49:15.877Z,33.67
2023-03-04T22:51:45.399Z,30.45
2023-03-04T22:54:18.401Z,32.97
2023-03-04T22:56:46.622Z,33.85
2023-03-04T22:59:15.106Z,34.25
2023-03-04T23:01:43.053Z,30.15
2023-03-04T23:04:10.875Z,30.67
2023-03-04T23:06:38.795Z,29.55
2023-03-04T23:09:06.743Z,28.60
2023-03-04T23:11:39.937Z,30.37
2023-03-04T23:14:09.128Z,30.25
2023-03-04T23:16:42.071Z,27.05
2023-03-04T23:19:14.051Z,26.80
2023-03-04T23:21:42.422Z,34.42
2023-03-04T23:24:12.305Z,30.70
2023-03-04T23:26:41.650Z,31.90
2023-03-04T23:29:12.554Z,30.17
2023-03-04T23:31:40.296Z,32.13
2023-03-04T23:34:08.160Z,27.33
2023-03-04T23:36:37.357Z,34.17
2023-03-04T23:39:07.599Z,25.67
2023-03-04T23:41:36.650Z,30.92
2023-03-04T23:44:05.181Z,26.27
2023-03-04T23:46:32.987Z,28.60
2023-03-04T23:49:00.655Z,30.85
2023-03-04T23:51:30.347Z,30.05
2023-03-04T23:53:59.341Z,32.80
2023-03-04T23:56:30.170Z,34.22
2023-03-04T23:58:59.434Z,32.38
